Stations météo

Publicité
Weeze/Niederrhein, Allemagne (10405): Température de l'air & dewpoint: 12.01.2018 06:00:00 - 18.01.2018 06:00:00 (CET)Weeze/Niederrhein, Allemagne (10405): Vitesse du vent: 12.01.2018 06:00:00 - 18.01.2018 06:00:00 (CET)Weeze/Niederrhein, Allemagne (10405): Direction du vent: 12.01.2018 06:00:00 - 18.01.2018 06:00:00 (CET)Weeze/Niederrhein, Allemagne (10405): visibility: 12.01.2018 06:00:00 - 18.01.2018 06:00:00 (CET)
Date & Time tt [°C] td [°C] ff [km/h] ff [knt] dd vv [km]
18.01.2018 06:00:00 4,0 4,0 29 16 S 9
18.01.2018 05:00:00 4,0 3,0 28 15 S 8
18.01.2018 04:00:00 - - - - - -
18.01.2018 03:00:00 - - - - - -
18.01.2018 02:00:00 - - - - - -
18.01.2018 01:00:00 - - - - - -
18.01.2018 00:00:00 4,0 1,0 16 9 SW 10
17.01.2018 23:00:00 4,0 1,0 22 12 WSW 10
17.01.2018 22:00:00 4,0 1,0 21 11 WSW 10
17.01.2018 21:00:00 5,0 1,0 28 15 WSW 10
17.01.2018 20:00:00 5,0 1,0 26 14 WSW 10
17.01.2018 19:00:00 5,0 1,0 28 15 WSW 10
17.01.2018 18:00:00 5,0 1,0 31 17 W 10
17.01.2018 17:00:00 5,0 1,0 28 15 W 10
17.01.2018 16:00:00 5,0 0,0 29 16 W 10
17.01.2018 15:00:00 4,0 1,0 26 14 WNW 9
17.01.2018 14:00:00 4,0 3,0 22 12 W 9
17.01.2018 13:00:00 4,0 2,0 29 16 WSW 10
17.01.2018 12:00:00 2,0 1,0 28 15 W 8
17.01.2018 11:00:00 3,0 1,0 26 14 WSW 10
17.01.2018 10:00:00 3,0 0,0 16 9 W 9
17.01.2018 09:00:00 2,0 0,0 16 9 SW 10
17.01.2018 08:00:00 2,0 1,0 18 10 WSW 10
17.01.2018 07:00:00 2,0 1,0 18 10 WSW 10
17.01.2018 06:00:00 - - - - - -
17.01.2018 05:00:00 3,0 1,0 22 12 WSW 10
17.01.2018 04:00:00 - - - - - -
17.01.2018 03:00:00 - - - - - -
17.01.2018 02:00:00 - - - - - -
17.01.2018 01:00:00 - - - - - -
17.01.2018 00:00:00 3,0 1,0 16 9 SW 10
16.01.2018 23:00:00 3,0 1,0 13 7 SSW 10
16.01.2018 22:00:00 3,0 1,0 29 16 W 10
16.01.2018 21:00:00 3,0 1,0 15 8 SSW 10
16.01.2018 20:00:00 3,0 1,0 13 7 SW 10
16.01.2018 19:00:00 3,0 1,0 13 7 SW 10
16.01.2018 18:00:00 4,0 2,0 22 12 WSW 10
16.01.2018 17:00:00 5,0 1,0 24 13 WSW 10
16.01.2018 16:00:00 5,0 1,0 28 15 W 10
16.01.2018 15:00:00 5,0 2,0 18 10 W 10
16.01.2018 14:00:00 6,0 2,0 34 18 W 10
16.01.2018 13:00:00 6,0 3,0 29 16 W 10
16.01.2018 12:00:00 4,0 3,0 26 14 W 10
16.01.2018 11:00:00 4,0 3,0 18 10 W 10
16.01.2018 10:00:00 7,0 5,0 26 14 WSW 10
16.01.2018 09:00:00 6,0 5,0 22 12 WSW 10
16.01.2018 08:00:00 5,0 5,0 8 4 W 10
16.01.2018 07:00:00 6,0 5,0 28 15 WSW 10
16.01.2018 06:00:00 7,0 5,0 24 13 SW 10
16.01.2018 05:00:00 6,0 5,0 16 9 SW 10
16.01.2018 04:00:00 - - - - - -
16.01.2018 03:00:00 - - - - - -
16.01.2018 02:00:00 - - - - - -
16.01.2018 01:00:00 - - - - - -
16.01.2018 00:00:00 7,0 7,0 24 13 WSW 10
15.01.2018 23:00:00 7,0 7,0 21 11 SW 10
15.01.2018 22:00:00 7,0 7,0 28 15 SSW 9
15.01.2018 21:00:00 6,0 6,0 29 16 SSW 10
15.01.2018 20:00:00 6,0 5,0 29 16 SSW 10
15.01.2018 19:00:00 6,0 5,0 31 17 S 9
15.01.2018 18:00:00 6,0 5,0 29 16 S 9
15.01.2018 17:00:00 7,0 5,0 26 14 S 10
15.01.2018 16:00:00 7,0 5,0 34 18 S 9
15.01.2018 15:00:00 7,0 4,0 24 13 S 10
15.01.2018 14:00:00 7,0 4,0 29 16 SSW 10
15.01.2018 13:00:00 7,0 4,0 29 16 S 10
15.01.2018 12:00:00 6,0 4,0 24 13 S 10
15.01.2018 11:00:00 6,0 4,0 21 11 S 10
15.01.2018 10:00:00 5,0 3,0 24 13 SSW 10
15.01.2018 09:00:00 5,0 3,0 21 11 S 10
15.01.2018 08:00:00 5,0 3,0 15 8 S 10
15.01.2018 07:00:00 5,0 3,0 16 9 S 10
15.01.2018 06:00:00 3,0 1,0 11 6 S 10
15.01.2018 05:00:00 2,0 1,0 11 6 SSE 10
15.01.2018 04:00:00 - - - - - -
15.01.2018 03:00:00 - - - - - -
15.01.2018 02:00:00 - - - - - -
15.01.2018 01:00:00 - - - - - -
15.01.2018 00:00:00 2,0 0,0 16 9 SSE 10
14.01.2018 23:00:00 2,0 0,0 15 8 SE 10
14.01.2018 22:00:00 2,0 0,0 16 9 SE 10
14.01.2018 21:00:00 2,0 0,0 16 9 SE 10
14.01.2018 20:00:00 2,0 0,0 15 8 SE 10
14.01.2018 19:00:00 2,0 0,0 13 7 ESE 10
14.01.2018 18:00:00 3,0 0,0 13 7 SE 10
14.01.2018 17:00:00 3,0 0,0 13 7 ESE 10
14.01.2018 16:00:00 4,0 0,0 16 9 SE 10
14.01.2018 15:00:00 5,0 0,0 22 12 SSE 10
14.01.2018 14:00:00 5,0 0,0 18 10 SE 10
14.01.2018 13:00:00 5,0 0,0 24 13 SE 10
14.01.2018 12:00:00 4,0 0,0 22 12 SE 10
14.01.2018 11:00:00 4,0 0,0 15 8 ESE 10
14.01.2018 10:00:00 4,0 1,0 11 6 E 10
14.01.2018 09:00:00 3,0 1,0 11 6 E 9
14.01.2018 08:00:00 3,0 1,0 9 5 E 9
14.01.2018 07:00:00 4,0 1,0 11 6 E 9
14.01.2018 06:00:00 4,0 1,0 9 5 E 9
14.01.2018 05:00:00 4,0 1,0 9 5 ENE 9
14.01.2018 04:00:00 - - - - - -
14.01.2018 03:00:00 - - - - - -
14.01.2018 02:00:00 - - - - - -
14.01.2018 01:00:00 - - - - - -
14.01.2018 00:00:00 5,0 1,0 8 4 ENE 10
13.01.2018 23:00:00 5,0 0,0 9 5 E 10
13.01.2018 22:00:00 4,0 0,0 11 6 E 10
13.01.2018 21:00:00 4,0 0,0 11 6 ESE 10
13.01.2018 20:00:00 3,0 0,0 9 5 E 10
13.01.2018 19:00:00 3,0 1,0 8 4 E 10
13.01.2018 18:00:00 4,0 2,0 8 4 E 10
13.01.2018 17:00:00 6,0 2,0 8 4 E 10
13.01.2018 16:00:00 6,0 3,0 11 6 ESE 10
13.01.2018 15:00:00 6,0 2,0 16 9 SE 10
13.01.2018 14:00:00 6,0 3,0 18 10 SE 10
13.01.2018 13:00:00 6,0 4,0 18 10 SE 10
13.01.2018 12:00:00 6,0 6,0 8 4 ESE 4,8
13.01.2018 11:00:00 5,0 5,0 5 3 - 2,2
13.01.2018 10:00:00 5,0 5,0 8 4 E 1,6
13.01.2018 09:00:00 4,0 4,0 4 2 - 1,5
13.01.2018 08:00:00 4,0 4,0 8 4 ENE 1,1
13.01.2018 07:00:00 5,0 5,0 4 2 - 1,5
13.01.2018 06:00:00 5,0 5,0 2 1 - 2,3
13.01.2018 05:00:00 5,0 5,0 2 1 - 2,3
13.01.2018 04:00:00 - - - - - -
13.01.2018 03:00:00 - - - - - -
13.01.2018 02:00:00 - - - - - -
13.01.2018 01:00:00 - - - - - -
13.01.2018 00:00:00 4,0 4,0 0 0 N 3,2
12.01.2018 23:00:00 4,0 4,0 2 1 - 3,9
12.01.2018 22:00:00 4,0 4,0 2 1 - 3,9
12.01.2018 21:00:00 4,0 4,0 4 2 - 4,9
12.01.2018 20:00:00 4,0 4,0 0 0 N 3,7
12.01.2018 19:00:00 4,0 4,0 0 0 N 3,7
12.01.2018 18:00:00 4,0 4,0 0 0 N 3,8
12.01.2018 17:00:00 4,0 4,0 0 0 N 3,1
12.01.2018 16:00:00 5,0 5,0 5 3 - 2,6
12.01.2018 15:00:00 4,0 4,0 0 0 N 2,8
12.01.2018 14:00:00 5,0 5,0 0 0 N 2,4
12.01.2018 13:00:00 4,0 4,0 4 2 - 2,4
12.01.2018 12:00:00 4,0 4,0 4 2 - 1,4
12.01.2018 11:00:00 4,0 4,0 4 2 - 1,2
12.01.2018 10:00:00 4,0 4,0 5 3 - 1,0
12.01.2018 09:00:00 4,0 4,0 2 1 - 0,9
12.01.2018 08:00:00 4,0 4,0 0 0 N 1,5
12.01.2018 07:00:00 4,0 4,0 0 0 N 2,1
12.01.2018 06:00:00 4,0 4,0 0 0 N 1,8

tt = Température de l'air
td = dewpoint
ff = Vitesse du vent
dd = Direction du vent
vv = visibility

stations d'obs. à proximité